TimeEST,TemperatureF,Dew PointF,Humidity,Sea Level PressureIn,VisibilityMPH,Wind Direction,Wind SpeedMPH,Gust SpeedMPH,PrecipitationIn,Events,Conditions,WindDirDegrees,DateUTC
12:42 AM,35.6,32.0,87,29.82,5.0,ESE,11.5,-,0.00,,Overcast,110,2013-12-03 05:42:00
12:53 AM,35.1,32.0,89,29.84,4.0,ESE,8.1,-,0.01,Rain,Light Rain,110,2013-12-03 05:53:00
1:14 AM,35.6,32.0,87,29.82,3.0,ESE,8.1,-,0.03,Rain,Light Rain,120,2013-12-03 06:14:00
1:25 AM,35.6,32.0,87,29.81,3.0,ESE,9.2,-,0.05,Rain,Light Rain,110,2013-12-03 06:25:00
1:50 AM,35.6,32.0,87,29.81,4.0,East,10.4,-,0.06,Rain,Light Rain,100,2013-12-03 06:50:00
1:53 AM,35.1,32.0,89,29.82,4.0,East,11.5,-,0.06,Rain,Light Rain,100,2013-12-03 06:53:00
2:17 AM,35.6,32.0,87,29.80,4.0,ESE,12.7,-,0.01,,Overcast,110,2013-12-03 07:17:00
2:48 AM,35.6,32.0,87,29.80,4.0,ESE,11.5,-,0.01,Rain,Light Rain,120,2013-12-03 07:48:00
2:53 AM,35.1,32.0,89,29.82,4.0,ESE,9.2,-,0.01,Rain,Light Rain,120,2013-12-03 07:53:00
3:53 AM,35.1,32.0,89,29.83,4.0,ESE,9.2,-,0.01,,Overcast,110,2013-12-03 08:53:00
4:53 AM,36.0,33.1,89,29.81,4.0,ESE,9.2,-,N/A,,Overcast,120,2013-12-03 09:53:00
5:49 AM,35.6,33.8,93,29.78,2.5,ESE,9.2,-,N/A,,Overcast,120,2013-12-03 10:49:00
5:53 AM,36.0,34.0,93,29.80,3.0,ESE,6.9,-,N/A,,Overcast,120,2013-12-03 10:53:00
6:53 AM,37.0,34.0,89,29.81,3.0,ESE,9.2,-,N/A,,Overcast,110,2013-12-03 11:53:00
7:03 AM,37.4,33.8,87,29.79,2.5,ESE,8.1,-,N/A,,Overcast,110,2013-12-03 12:03:00
7:13 AM,37.4,33.8,87,29.79,3.0,ESE,8.1,-,N/A,,Overcast,110,2013-12-03 12:13:00
7:34 AM,37.4,33.8,87,29.78,2.5,ESE,11.5,-,N/A,,Overcast,120,2013-12-03 12:34:00
7:53 AM,37.0,34.0,89,29.80,2.5,ESE,11.5,-,N/A,,Overcast,120,2013-12-03 12:53:00
8:10 AM,37.4,33.8,87,29.78,1.8,SE,11.5,-,N/A,,Overcast,130,2013-12-03 13:10:00
8:53 AM,37.0,35.1,93,29.81,1.8,SE,9.2,-,N/A,,Overcast,140,2013-12-03 13:53:00
9:53 AM,37.9,36.0,93,29.81,1.5,SE,11.5,-,N/A,,Overcast,140,2013-12-03 14:53:00
10:53 AM,39.9,37.0,89,29.84,1.8,SSE,5.8,-,N/A,,Overcast,150,2013-12-03 15:53:00
11:42 AM,41.0,37.4,87,29.79,1.5,SE,10.4,-,N/A,,Mostly Cloudy,140,2013-12-03 16:42:00
11:53 AM,42.1,37.9,85,29.82,1.5,SSE,6.9,-,N/A,,Mostly Cloudy,150,2013-12-03 16:53:00
12:04 PM,42.8,39.2,87,29.80,1.5,SE,6.9,-,N/A,,Mostly Cloudy,140,2013-12-03 17:04:00
12:40 PM,42.8,39.2,87,29.78,1.8,SE,8.1,-,N/A,,Mostly Cloudy,140,2013-12-03 17:40:00
12:53 PM,43.0,39.9,89,29.80,1.8,SSE,10.4,-,N/A,,Mostly Cloudy,150,2013-12-03 17:53:00
1:21 PM,44.6,41.0,87,29.76,2.0,SE,10.4,-,N/A,,Partly Cloudy,140,2013-12-03 18:21:00
1:53 PM,46.9,42.1,83,29.77,2.0,SE,9.2,-,N/A,,Haze,140,2013-12-03 18:53:00
2:53 PM,48.0,43.0,83,29.76,2.5,SE,9.2,-,N/A,,Haze,140,2013-12-03 19:53:00
3:53 PM,48.9,44.1,83,29.76,2.0,SE,8.1,-,N/A,,Haze,140,2013-12-03 20:53:00
4:53 PM,48.0,44.1,86,29.77,2.0,South,6.9,-,N/A,,Overcast,170,2013-12-03 21:53:00
5:23 PM,46.4,44.6,93,29.75,3.0,SSE,6.9,-,N/A,,Overcast,160,2013-12-03 22:23:00
5:53 PM,48.0,44.1,86,29.76,4.0,SSE,10.4,-,N/A,,Overcast,150,2013-12-03 22:53:00
6:53 PM,48.0,44.1,86,29.77,4.0,SSE,6.9,-,N/A,,Overcast,160,2013-12-03 23:53:00
7:28 PM,48.2,44.6,87,29.76,3.0,SSE,5.8,-,N/A,,Overcast,150,2013-12-04 00:28:00
7:53 PM,48.0,44.1,86,29.77,3.0,SE,6.9,-,N/A,,Overcast,140,2013-12-04 00:53:00
8:53 PM,48.0,44.1,86,29.79,4.0,SSE,6.9,-,N/A,,Overcast,150,2013-12-04 01:53:00
9:24 PM,48.2,44.6,87,29.77,4.0,SSE,9.2,-,N/A,,Overcast,160,2013-12-04 02:24:00
9:53 PM,48.0,44.1,86,29.80,4.0,South,9.2,-,N/A,,Overcast,180,2013-12-04 02:53:00
10:00 PM,48.2,44.6,87,29.79,4.0,South,8.1,-,N/A,,Haze,170,2013-12-04 03:00:00
10:53 PM,48.9,44.1,83,29.81,4.0,South,9.2,-,N/A,,Haze,170,2013-12-04 03:53:00
11:53 PM,46.9,43.0,86,29.81,3.0,SE,6.9,-,N/A,,Scattered Clouds,140,2013-12-04 04:53:00